sensor_id;sensor_type;location;lat;lon;timestamp;temperature;humidity
4602;DHT22;2313;48.552;9.370;2023-11-21T00:00:05;8.10;99.90
4602;DHT22;2313;48.552;9.370;2023-11-21T00:02:36;8.10;99.90
4602;DHT22;2313;48.552;9.370;2023-11-21T00:05:04;8.10;99.90
4602;DHT22;2313;48.552;9.370;2023-11-21T00:07:30;8.20;99.90
4602;DHT22;2313;48.552;9.370;2023-11-21T00:09:55;8.20;99.90
4602;DHT22;2313;48.552;9.370;2023-11-21T00:12:21;8.20;99.90
4602;DHT22;2313;48.552;9.370;2023-11-21T00:14:47;8.10;99.90
4602;DHT22;2313;48.552;9.370;2023-11-21T00:17:12;8.10;99.90
4602;DHT22;2313;48.552;9.370;2023-11-21T00:19:38;8.20;99.90
4602;DHT22;2313;48.552;9.370;2023-11-21T00:22:03;8.10;99.90
4602;DHT22;2313;48.552;9.370;2023-11-21T00:24:29;8.00;99.90
4602;DHT22;2313;48.552;9.370;2023-11-21T00:26:54;8.10;99.90
4602;DHT22;2313;48.552;9.370;2023-11-21T00:29:20;8.20;99.90
4602;DHT22;2313;48.552;9.370;2023-11-21T00:31:45;8.30;99.90
4602;DHT22;2313;48.552;9.370;2023-11-21T00:34:12;8.20;99.90
4602;DHT22;2313;48.552;9.370;2023-11-21T00:36:38;8.20;99.90
4602;DHT22;2313;48.552;9.370;2023-11-21T00:39:04;8.30;99.90
4602;DHT22;2313;48.552;9.370;2023-11-21T00:41:31;8.30;99.90
4602;DHT22;2313;48.552;9.370;2023-11-21T00:43:57;8.30;99.90
4602;DHT22;2313;48.552;9.370;2023-11-21T00:46:23;8.30;99.90
4602;DHT22;2313;48.552;9.370;2023-11-21T00:48:49;8.20;99.90
4602;DHT22;2313;48.552;9.370;2023-11-21T00:51:15;8.20;99.90
4602;DHT22;2313;48.552;9.370;2023-11-21T00:53:41;8.30;99.90
4602;DHT22;2313;48.552;9.370;2023-11-21T00:56:06;8.30;99.90
4602;DHT22;2313;48.552;9.370;2023-11-21T00:58:33;8.40;99.90
4602;DHT22;2313;48.552;9.370;2023-11-21T01:00:59;8.40;99.90
4602;DHT22;2313;48.552;9.370;2023-11-21T01:03:25;8.30;99.90
4602;DHT22;2313;48.552;9.370;2023-11-21T01:05:50;8.40;99.90
4602;DHT22;2313;48.552;9.370;2023-11-21T01:08:16;8.40;99.90
4602;DHT22;2313;48.552;9.370;2023-11-21T01:10:42;8.40;99.90
4602;DHT22;2313;48.552;9.370;2023-11-21T01:13:07;8.50;99.90
4602;DHT22;2313;48.552;9.370;2023-11-21T01:15:34;8.40;99.90
4602;DHT22;2313;48.552;9.370;2023-11-21T01:17:59;8.40;99.90
4602;DHT22;2313;48.552;9.370;2023-11-21T01:20:25;8.40;99.90
4602;DHT22;2313;48.552;9.370;2023-11-21T01:22:51;8.30;99.90
4602;DHT22;2313;48.552;9.370;2023-11-21T01:25:17;8.30;99.90
4602;DHT22;2313;48.552;9.370;2023-11-21T01:27:43;8.20;99.90
4602;DHT22;2313;48.552;9.370;2023-11-21T01:30:09;8.10;99.90
4602;DHT22;2313;48.552;9.370;2023-11-21T01:32:37;8.10;99.90
4602;DHT22;2313;48.552;9.370;2023-11-21T01:35:03;8.00;99.90
4602;DHT22;2313;48.552;9.370;2023-11-21T01:37:31;8.00;99.90
4602;DHT22;2313;48.552;9.370;2023-11-21T01:39:57;8.00;99.90
4602;DHT22;2313;48.552;9.370;2023-11-21T01:42:22;8.10;99.90
4602;DHT22;2313;48.552;9.370;2023-11-21T01:44:48;8.10;99.90
4602;DHT22;2313;48.552;9.370;2023-11-21T01:47:14;8.20;99.90
4602;DHT22;2313;48.552;9.370;2023-11-21T01:49:44;8.20;99.90
4602;DHT22;2313;48.552;9.370;2023-11-21T01:52:10;8.30;99.90
4602;DHT22;2313;48.552;9.370;2023-11-21T01:54:37;8.20;99.90
4602;DHT22;2313;48.552;9.370;2023-11-21T01:57:04;8.20;99.90
4602;DHT22;2313;48.552;9.370;2023-11-21T01:59:36;8.10;99.90
4602;DHT22;2313;48.552;9.370;2023-11-21T02:02:05;8.20;99.90
4602;DHT22;2313;48.552;9.370;2023-11-21T02:04:34;8.10;99.90
4602;DHT22;2313;48.552;9.370;2023-11-21T02:07:02;8.00;99.90
4602;DHT22;2313;48.552;9.370;2023-11-21T02:09:31;8.10;99.90
4602;DHT22;2313;48.552;9.370;2023-11-21T02:11:57;7.90;99.90
4602;DHT22;2313;48.552;9.370;2023-11-21T02:14:24;8.00;99.90
4602;DHT22;2313;48.552;9.370;2023-11-21T02:16:52;8.00;99.90
4602;DHT22;2313;48.552;9.370;2023-11-21T02:19:19;8.00;99.90
4602;DHT22;2313;48.552;9.370;2023-11-21T02:21:54;8.00;99.90
4602;DHT22;2313;48.552;9.370;2023-11-21T02:24:23;8.00;99.90
4602;DHT22;2313;48.552;9.370;2023-11-21T02:26:50;8.10;99.90
4602;DHT22;2313;48.552;9.370;2023-11-21T02:29:19;8.10;99.90
4602;DHT22;2313;48.552;9.370;2023-11-21T02:31:50;8.10;99.90
4602;DHT22;2313;48.552;9.370;2023-11-21T02:34:17;8.20;99.90
4602;DHT22;2313;48.552;9.370;2023-11-21T02:36:44;8.20;99.90
4602;DHT22;2313;48.552;9.370;2023-11-21T02:39:10;8.30;99.90
4602;DHT22;2313;48.552;9.370;2023-11-21T02:41:39;8.30;99.90
4602;DHT22;2313;48.552;9.370;2023-11-21T02:44:07;8.30;99.90
4602;DHT22;2313;48.552;9.370;2023-11-21T02:46:36;8.30;99.90
4602;DHT22;2313;48.552;9.370;2023-11-21T02:49:03;8.30;99.90
4602;DHT22;2313;48.552;9.370;2023-11-21T02:51:29;8.20;99.90
4602;DHT22;2313;48.552;9.370;2023-11-21T02:53:55;8.20;99.90
4602;DHT22;2313;48.552;9.370;2023-11-21T02:56:25;8.20;99.90
4602;DHT22;2313;48.552;9.370;2023-11-21T02:58:51;8.20;99.90
4602;DHT22;2313;48.552;9.370;2023-11-21T03:01:16;8.20;99.90
4602;DHT22;2313;48.552;9.370;2023-11-21T03:03:42;8.20;99.90
4602;DHT22;2313;48.552;9.370;2023-11-21T03:06:08;8.20;99.90
4602;DHT22;2313;48.552;9.370;2023-11-21T03:08:34;8.20;99.90
4602;DHT22;2313;48.552;9.370;2023-11-21T03:11:00;8.20;99.90
4602;DHT22;2313;48.552;9.370;2023-11-21T03:13:25;8.20;99.90
4602;DHT22;2313;48.552;9.370;2023-11-21T03:15:51;8.20;99.90
4602;DHT22;2313;48.552;9.370;2023-11-21T03:18:17;8.10;99.90
4602;DHT22;2313;48.552;9.370;2023-11-21T03:20:43;8.10;99.90
4602;DHT22;2313;48.552;9.370;2023-11-21T03:23:12;8.00;99.90
4602;DHT22;2313;48.552;9.370;2023-11-21T03:25:37;8.00;99.90
4602;DHT22;2313;48.552;9.370;2023-11-21T03:28:03;8.10;99.90
4602;DHT22;2313;48.552;9.370;2023-11-21T03:30:28;8.10;99.90
4602;DHT22;2313;48.552;9.370;2023-11-21T03:32:54;8.10;99.90
4602;DHT22;2313;48.552;9.370;2023-11-21T03:35:20;8.10;99.90
4602;DHT22;2313;48.552;9.370;2023-11-21T03:37:46;8.10;99.90
4602;DHT22;2313;48.552;9.370;2023-11-21T03:40:12;8.10;99.90
4602;DHT22;2313;48.552;9.370;2023-11-21T03:42:38;8.20;99.90
4602;DHT22;2313;48.552;9.370;2023-11-21T03:45:05;8.30;99.90
4602;DHT22;2313;48.552;9.370;2023-11-21T03:47:31;8.20;99.90
4602;DHT22;2313;48.552;9.370;2023-11-21T03:49:57;8.20;99.90
4602;DHT22;2313;48.552;9.370;2023-11-21T03:52:22;8.20;99.90
4602;DHT22;2313;48.552;9.370;2023-11-21T03:54:48;8.20;99.90
4602;DHT22;2313;48.552;9.370;2023-11-21T03:57:13;8.20;99.90
4602;DHT22;2313;48.552;9.370;2023-11-21T03:59:43;8.20;99.90
4602;DHT22;2313;48.552;9.370;2023-11-21T04:02:09;8.20;99.90
4602;DHT22;2313;48.552;9.370;2023-11-21T04:04:38;8.20;99.90
4602;DHT22;2313;48.552;9.370;2023-11-21T04:07:04;8.30;99.90
4602;DHT22;2313;48.552;9.370;2023-11-21T04:09:30;8.30;99.90
4602;DHT22;2313;48.552;9.370;2023-11-21T04:11:55;8.30;99.90
4602;DHT22;2313;48.552;9.370;2023-11-21T04:14:21;8.30;99.90
4602;DHT22;2313;48.552;9.370;2023-11-21T04:16:47;8.20;99.90
4602;DHT22;2313;48.552;9.370;2023-11-21T04:19:14;8.40;99.90
4602;DHT22;2313;48.552;9.370;2023-11-21T04:21:42;8.40;99.90
4602;DHT22;2313;48.552;9.370;2023-11-21T04:24:08;8.40;99.90
4602;DHT22;2313;48.552;9.370;2023-11-21T04:26:34;8.40;99.90
4602;DHT22;2313;48.552;9.370;2023-11-21T04:28:59;8.60;99.90
4602;DHT22;2313;48.552;9.370;2023-11-21T04:31:25;8.40;99.90
4602;DHT22;2313;48.552;9.370;2023-11-21T04:33:50;8.40;99.90
4602;DHT22;2313;48.552;9.370;2023-11-21T04:36:16;8.40;99.90
4602;DHT22;2313;48.552;9.370;2023-11-21T04:38:42;8.40;99.90
4602;DHT22;2313;48.552;9.370;2023-11-21T04:41:08;8.50;99.90
4602;DHT22;2313;48.552;9.370;2023-11-21T04:43:33;8.50;99.90
4602;DHT22;2313;48.552;9.370;2023-11-21T04:45:59;8.50;99.90
4602;DHT22;2313;48.552;9.370;2023-11-21T04:48:25;8.50;99.90
4602;DHT22;2313;48.552;9.370;2023-11-21T04:50:51;8.40;99.90
4602;DHT22;2313;48.552;9.370;2023-11-21T04:53:17;8.50;99.90
4602;DHT22;2313;48.552;9.370;2023-11-21T04:55:43;8.40;99.90
4602;DHT22;2313;48.552;9.370;2023-11-21T04:58:09;8.50;99.90
4602;DHT22;2313;48.552;9.370;2023-11-21T05:00:35;8.50;99.90
4602;DHT22;2313;48.552;9.370;2023-11-21T05:03:02;8.50;99.90
4602;DHT22;2313;48.552;9.370;2023-11-21T05:05:29;8.40;99.90
4602;DHT22;2313;48.552;9.370;2023-11-21T05:07:59;8.40;99.90
4602;DHT22;2313;48.552;9.370;2023-11-21T05:10:24;8.40;99.90
4602;DHT22;2313;48.552;9.370;2023-11-21T05:12:50;8.40;99.90
4602;DHT22;2313;48.552;9.370;2023-11-21T05:15:16;8.40;99.90
4602;DHT22;2313;48.552;9.370;2023-11-21T05:17:46;8.40;99.90
4602;DHT22;2313;48.552;9.370;2023-11-21T05:20:15;8.30;99.90
4602;DHT22;2313;48.552;9.370;2023-11-21T05:22:49;8.30;99.90
4602;DHT22;2313;48.552;9.370;2023-11-21T05:25:15;8.40;99.90
4602;DHT22;2313;48.552;9.370;2023-11-21T05:27:42;8.20;99.90
4602;DHT22;2313;48.552;9.370;2023-11-21T05:30:08;8.20;99.90
4602;DHT22;2313;48.552;9.370;2023-11-21T05:32:38;8.10;99.90
4602;DHT22;2313;48.552;9.370;2023-11-21T05:35:04;8.20;99.90
4602;DHT22;2313;48.552;9.370;2023-11-21T05:37:35;8.20;99.90
4602;DHT22;2313;48.552;9.370;2023-11-21T05:40:01;8.10;99.90
4602;DHT22;2313;48.552;9.370;2023-11-21T05:42:35;8.20;99.90
4602;DHT22;2313;48.552;9.370;2023-11-21T05:45:01;8.20;99.90
4602;DHT22;2313;48.552;9.370;2023-11-21T05:47:41;8.30;99.90
4602;DHT22;2313;48.552;9.370;2023-11-21T05:50:11;8.10;99.90
4602;DHT22;2313;48.552;9.370;2023-11-21T05:52:38;8.10;99.90
4602;DHT22;2313;48.552;9.370;2023-11-21T05:55:07;8.00;99.90
4602;DHT22;2313;48.552;9.370;2023-11-21T05:57:37;8.10;99.90
4602;DHT22;2313;48.552;9.370;2023-11-21T06:00:08;8.10;99.90
4602;DHT22;2313;48.552;9.370;2023-11-21T06:02:53;8.20;99.90
4602;DHT22;2313;48.552;9.370;2023-11-21T06:05:21;8.20;99.90
4602;DHT22;2313;48.552;9.370;2023-11-21T06:07:48;8.20;99.90
4602;DHT22;2313;48.552;9.370;2023-11-21T06:10:14;8.10;99.90
4602;DHT22;2313;48.552;9.370;2023-11-21T06:12:40;8.10;99.90
4602;DHT22;2313;48.552;9.370;2023-11-21T06:15:09;8.00;99.90
4602;DHT22;2313;48.552;9.370;2023-11-21T06:17:35;8.00;99.90
4602;DHT22;2313;48.552;9.370;2023-11-21T06:20:05;8.00;99.90
4602;DHT22;2313;48.552;9.370;2023-11-21T06:22:38;8.00;99.90
4602;DHT22;2313;48.552;9.370;2023-11-21T06:25:05;8.00;99.90
4602;DHT22;2313;48.552;9.370;2023-11-21T06:27:36;7.80;99.90
4602;DHT22;2313;48.552;9.370;2023-11-21T06:30:02;7.70;99.90
4602;DHT22;2313;48.552;9.370;2023-11-21T06:32:29;7.70;99.90
4602;DHT22;2313;48.552;9.370;2023-11-21T06:34:55;7.60;99.90
4602;DHT22;2313;48.552;9.370;2023-11-21T06:37:21;7.70;99.90
4602;DHT22;2313;48.552;9.370;2023-11-21T06:39:49;7.60;99.90
4602;DHT22;2313;48.552;9.370;2023-11-21T06:42:18;7.70;99.90
4602;DHT22;2313;48.552;9.370;2023-11-21T06:44:45;7.60;99.90
4602;DHT22;2313;48.552;9.370;2023-11-21T06:47:11;7.70;99.90
4602;DHT22;2313;48.552;9.370;2023-11-21T06:49:36;7.50;99.90
4602;DHT22;2313;48.552;9.370;2023-11-21T06:52:04;7.50;99.90
4602;DHT22;2313;48.552;9.370;2023-11-21T06:54:31;7.40;99.90
4602;DHT22;2313;48.552;9.370;2023-11-21T06:56:57;7.40;99.90
4602;DHT22;2313;48.552;9.370;2023-11-21T06:59:23;7.40;99.90
4602;DHT22;2313;48.552;9.370;2023-11-21T07:01:50;7.40;99.90
4602;DHT22;2313;48.552;9.370;2023-11-21T07:04:16;7.50;99.90
4602;DHT22;2313;48.552;9.370;2023-11-21T07:06:41;7.40;99.90
4602;DHT22;2313;48.552;9.370;2023-11-21T07:09:08;7.30;99.90
4602;DHT22;2313;48.552;9.370;2023-11-21T07:11:35;7.30;99.90
4602;DHT22;2313;48.552;9.370;2023-11-21T07:14:00;7.30;99.90
4602;DHT22;2313;48.552;9.370;2023-11-21T07:16:35;7.50;99.90
4602;DHT22;2313;48.552;9.370;2023-11-21T07:19:03;7.40;99.90
4602;DHT22;2313;48.552;9.370;2023-11-21T07:21:32;7.40;99.90
4602;DHT22;2313;48.552;9.370;2023-11-21T07:23:58;7.50;99.90
4602;DHT22;2313;48.552;9.370;2023-11-21T07:26:24;7.50;99.90
4602;DHT22;2313;48.552;9.370;2023-11-21T07:28:51;7.60;99.90
4602;DHT22;2313;48.552;9.370;2023-11-21T07:31:16;7.60;99.90
4602;DHT22;2313;48.552;9.370;2023-11-21T07:33:42;7.60;99.90
4602;DHT22;2313;48.552;9.370;2023-11-21T07:36:08;7.80;99.90
4602;DHT22;2313;48.552;9.370;2023-11-21T07:38:33;7.80;99.90
4602;DHT22;2313;48.552;9.370;2023-11-21T07:40:59;7.90;99.90
4602;DHT22;2313;48.552;9.370;2023-11-21T07:43:26;8.00;99.90
4602;DHT22;2313;48.552;9.370;2023-11-21T07:45:52;8.10;99.90
4602;DHT22;2313;48.552;9.370;2023-11-21T07:48:18;8.00;99.90
4602;DHT22;2313;48.552;9.370;2023-11-21T07:50:43;8.20;99.90
4602;DHT22;2313;48.552;9.370;2023-11-21T07:53:09;8.30;99.90
4602;DHT22;2313;48.552;9.370;2023-11-21T07:55:34;8.40;99.90
4602;DHT22;2313;48.552;9.370;2023-11-21T07:58:01;8.50;99.90
4602;DHT22;2313;48.552;9.370;2023-11-21T08:00:27;8.40;99.90
4602;DHT22;2313;48.552;9.370;2023-11-21T08:02:55;8.70;99.90
4602;DHT22;2313;48.552;9.370;2023-11-21T08:05:21;8.60;99.90
4602;DHT22;2313;48.552;9.370;2023-11-21T08:07:47;8.70;99.90
4602;DHT22;2313;48.552;9.370;2023-11-21T08:10:12;8.50;99.90
4602;DHT22;2313;48.552;9.370;2023-11-21T08:12:38;8.50;99.90
4602;DHT22;2313;48.552;9.370;2023-11-21T08:15:04;8.80;99.90
4602;DHT22;2313;48.552;9.370;2023-11-21T08:17:31;8.70;99.90
4602;DHT22;2313;48.552;9.370;2023-11-21T08:19:58;8.70;99.90
4602;DHT22;2313;48.552;9.370;2023-11-21T08:22:23;8.80;99.90
4602;DHT22;2313;48.552;9.370;2023-11-21T08:24:50;8.80;99.90
4602;DHT22;2313;48.552;9.370;2023-11-21T08:27:16;8.80;99.90
4602;DHT22;2313;48.552;9.370;2023-11-21T08:29:42;8.80;99.90
4602;DHT22;2313;48.552;9.370;2023-11-21T08:32:08;8.90;99.90
4602;DHT22;2313;48.552;9.370;2023-11-21T08:34:33;8.90;99.90
4602;DHT22;2313;48.552;9.370;2023-11-21T08:36:59;9.10;99.90
4602;DHT22;2313;48.552;9.370;2023-11-21T08:39:25;9.00;99.90
4602;DHT22;2313;48.552;9.370;2023-11-21T08:41:52;9.10;99.90
4602;DHT22;2313;48.552;9.370;2023-11-21T08:44:17;9.20;99.90
4602;DHT22;2313;48.552;9.370;2023-11-21T08:46:46;9.10;99.90
4602;DHT22;2313;48.552;9.370;2023-11-21T08:49:12;9.40;99.90
4602;DHT22;2313;48.552;9.370;2023-11-21T08:51:38;9.30;99.90
4602;DHT22;2313;48.552;9.370;2023-11-21T08:54:04;9.30;99.90
4602;DHT22;2313;48.552;9.370;2023-11-21T08:56:33;9.40;99.90
4602;DHT22;2313;48.552;9.370;2023-11-21T08:58:59;9.40;99.90
4602;DHT22;2313;48.552;9.370;2023-11-21T09:01:31;9.50;99.90
4602;DHT22;2313;48.552;9.370;2023-11-21T09:03:58;9.40;99.90
4602;DHT22;2313;48.552;9.370;2023-11-21T09:06:24;9.40;99.90
4602;DHT22;2313;48.552;9.370;2023-11-21T09:08:50;9.50;99.90
4602;DHT22;2313;48.552;9.370;2023-11-21T09:11:15;9.50;99.90
4602;DHT22;2313;48.552;9.370;2023-11-21T09:13:41;9.50;99.90
4602;DHT22;2313;48.552;9.370;2023-11-21T09:16:07;9.50;99.90
4602;DHT22;2313;48.552;9.370;2023-11-21T09:18:32;9.50;99.90
4602;DHT22;2313;48.552;9.370;2023-11-21T09:20:58;9.60;99.90
4602;DHT22;2313;48.552;9.370;2023-11-21T09:23:24;9.60;99.90
4602;DHT22;2313;48.552;9.370;2023-11-21T09:25:50;9.40;99.90
4602;DHT22;2313;48.552;9.370;2023-11-21T09:28:17;9.60;99.90
4602;DHT22;2313;48.552;9.370;2023-11-21T09:30:43;9.60;99.90
4602;DHT22;2313;48.552;9.370;2023-11-21T09:33:09;9.60;99.90
4602;DHT22;2313;48.552;9.370;2023-11-21T09:35:37;9.40;99.90
4602;DHT22;2313;48.552;9.370;2023-11-21T09:38:03;9.50;99.90
4602;DHT22;2313;48.552;9.370;2023-11-21T09:40:35;9.40;99.90
4602;DHT22;2313;48.552;9.370;2023-11-21T09:43:09;9.50;99.90
4602;DHT22;2313;48.552;9.370;2023-11-21T09:45:45;9.70;99.90
4602;DHT22;2313;48.552;9.370;2023-11-21T09:48:11;9.60;99.90
4602;DHT22;2313;48.552;9.370;2023-11-21T09:50:37;9.50;99.90
4602;DHT22;2313;48.552;9.370;2023-11-21T09:53:17;9.60;99.90
4602;DHT22;2313;48.552;9.370;2023-11-21T09:55:45;9.60;99.90
4602;DHT22;2313;48.552;9.370;2023-11-21T09:58:12;9.60;99.90
4602;DHT22;2313;48.552;9.370;2023-11-21T10:00:46;9.70;99.90
4602;DHT22;2313;48.552;9.370;2023-11-21T10:03:12;9.70;99.90
4602;DHT22;2313;48.552;9.370;2023-11-21T10:05:40;9.70;99.90
4602;DHT22;2313;48.552;9.370;2023-11-21T10:08:10;9.70;99.90
4602;DHT22;2313;48.552;9.370;2023-11-21T10:10:46;9.80;99.90
4602;DHT22;2313;48.552;9.370;2023-11-21T10:13:15;9.90;99.90
4602;DHT22;2313;48.552;9.370;2023-11-21T10:15:44;10.00;99.90
4602;DHT22;2313;48.552;9.370;2023-11-21T10:18:14;10.00;99.90
4602;DHT22;2313;48.552;9.370;2023-11-21T10:20:41;10.00;99.90
4602;DHT22;2313;48.552;9.370;2023-11-21T10:23:07;10.10;99.90
4602;DHT22;2313;48.552;9.370;2023-11-21T10:25:37;10.20;99.90
4602;DHT22;2313;48.552;9.370;2023-11-21T10:28:03;10.20;99.90
4602;DHT22;2313;48.552;9.370;2023-11-21T10:30:36;10.20;99.90
4602;DHT22;2313;48.552;9.370;2023-11-21T10:33:06;10.30;99.90
4602;DHT22;2313;48.552;9.370;2023-11-21T10:38:07;10.30;99.90
4602;DHT22;2313;48.552;9.370;2023-11-21T10:40:39;10.30;99.90
4602;DHT22;2313;48.552;9.370;2023-11-21T10:43:07;10.20;99.90
4602;DHT22;2313;48.552;9.370;2023-11-21T10:45:39;10.20;99.90
4602;DHT22;2313;48.552;9.370;2023-11-21T10:48:06;10.20;99.90
4602;DHT22;2313;48.552;9.370;2023-11-21T10:50:36;9.90;99.90
4602;DHT22;2313;48.552;9.370;2023-11-21T10:53:03;9.90;99.90
4602;DHT22;2313;48.552;9.370;2023-11-21T10:55:30;9.90;99.90
4602;DHT22;2313;48.552;9.370;2023-11-21T10:57:59;9.90;99.90
4602;DHT22;2313;48.552;9.370;2023-11-21T11:00:26;9.70;99.90
4602;DHT22;2313;48.552;9.370;2023-11-21T11:02:53;9.50;99.90
4602;DHT22;2313;48.552;9.370;2023-11-21T11:05:26;9.50;99.90
4602;DHT22;2313;48.552;9.370;2023-11-21T11:08:04;9.70;99.90
4602;DHT22;2313;48.552;9.370;2023-11-21T11:10:31;9.80;99.90
4602;DHT22;2313;48.552;9.370;2023-11-21T11:12:58;9.90;99.90
4602;DHT22;2313;48.552;9.370;2023-11-21T11:15:25;10.00;99.90
4602;DHT22;2313;48.552;9.370;2023-11-21T11:17:52;10.00;99.90
4602;DHT22;2313;48.552;9.370;2023-11-21T11:20:27;10.20;99.90
4602;DHT22;2313;48.552;9.370;2023-11-21T11:25:53;10.10;99.90
4602;DHT22;2313;48.552;9.370;2023-11-21T11:28:34;10.20;99.90
4602;DHT22;2313;48.552;9.370;2023-11-21T11:31:17;10.30;99.90
4602;DHT22;2313;48.552;9.370;2023-11-21T11:33:55;10.40;99.90
4602;DHT22;2313;48.552;9.370;2023-11-21T11:36:41;10.40;99.90
4602;DHT22;2313;48.552;9.370;2023-11-21T11:39:34;10.40;99.90
4602;DHT22;2313;48.552;9.370;2023-11-21T11:42:02;10.50;99.90
4602;DHT22;2313;48.552;9.370;2023-11-21T11:47:31;10.50;99.90
4602;DHT22;2313;48.552;9.370;2023-11-21T11:50:07;10.60;99.90
4602;DHT22;2313;48.552;9.370;2023-11-21T11:52:55;10.50;99.90
4602;DHT22;2313;48.552;9.370;2023-11-21T11:55:24;10.60;99.90
4602;DHT22;2313;48.552;9.370;2023-11-21T11:57:54;10.70;99.90
4602;DHT22;2313;48.552;9.370;2023-11-21T12:02:54;10.60;99.90
4602;DHT22;2313;48.552;9.370;2023-11-21T12:05:21;10.70;99.90
4602;DHT22;2313;48.552;9.370;2023-11-21T12:07:50;10.70;99.90
4602;DHT22;2313;48.552;9.370;2023-11-21T12:13:15;10.90;99.90
4602;DHT22;2313;48.552;9.370;2023-11-21T12:15:41;11.00;99.90
4602;DHT22;2313;48.552;9.370;2023-11-21T12:18:07;11.20;99.90
4602;DHT22;2313;48.552;9.370;2023-11-21T12:20:33;11.30;99.90
4602;DHT22;2313;48.552;9.370;2023-11-21T12:23:05;11.50;99.90
4602;DHT22;2313;48.552;9.370;2023-11-21T12:25:31;11.40;99.90
4602;DHT22;2313;48.552;9.370;2023-11-21T12:27:59;11.30;99.90
4602;DHT22;2313;48.552;9.370;2023-11-21T12:30:27;11.30;99.90
4602;DHT22;2313;48.552;9.370;2023-11-21T12:33:01;11.20;99.90
4602;DHT22;2313;48.552;9.370;2023-11-21T12:35:31;11.00;99.90
4602;DHT22;2313;48.552;9.370;2023-11-21T12:37:59;10.90;99.90
4602;DHT22;2313;48.552;9.370;2023-11-21T12:40:26;10.80;99.90
4602;DHT22;2313;48.552;9.370;2023-11-21T12:42:53;10.80;99.90
4602;DHT22;2313;48.552;9.370;2023-11-21T12:45:21;10.50;99.90
4602;DHT22;2313;48.552;9.370;2023-11-21T12:47:48;10.50;99.90
4602;DHT22;2313;48.552;9.370;2023-11-21T12:50:21;10.60;99.90
4602;DHT22;2313;48.552;9.370;2023-11-21T12:52:52;10.30;99.90
4602;DHT22;2313;48.552;9.370;2023-11-21T12:55:20;10.30;99.90
4602;DHT22;2313;48.552;9.370;2023-11-21T12:57:54;10.20;99.90
4602;DHT22;2313;48.552;9.370;2023-11-21T13:00:33;10.20;99.90
4602;DHT22;2313;48.552;9.370;2023-11-21T13:03:03;10.20;99.90
4602;DHT22;2313;48.552;9.370;2023-11-21T13:05:32;10.10;99.90
4602;DHT22;2313;48.552;9.370;2023-11-21T13:08:00;10.10;99.90
4602;DHT22;2313;48.552;9.370;2023-11-21T13:10:29;10.10;99.90
4602;DHT22;2313;48.552;9.370;2023-11-21T13:13:00;10.10;99.90
4602;DHT22;2313;48.552;9.370;2023-11-21T13:15:29;10.00;99.90
4602;DHT22;2313;48.552;9.370;2023-11-21T13:17:57;9.90;99.90
4602;DHT22;2313;48.552;9.370;2023-11-21T13:20:26;9.90;99.90
4602;DHT22;2313;48.552;9.370;2023-11-21T13:22:53;9.90;99.90
4602;DHT22;2313;48.552;9.370;2023-11-21T13:25:23;10.00;99.90
4602;DHT22;2313;48.552;9.370;2023-11-21T13:27:49;9.90;99.90
4602;DHT22;2313;48.552;9.370;2023-11-21T13:30:15;9.90;99.90
4602;DHT22;2313;48.552;9.370;2023-11-21T13:32:45;10.00;99.90
4602;DHT22;2313;48.552;9.370;2023-11-21T13:35:17;10.00;99.90
4602;DHT22;2313;48.552;9.370;2023-11-21T13:37:56;9.90;99.90
4602;DHT22;2313;48.552;9.370;2023-11-21T13:40:25;10.00;99.90
4602;DHT22;2313;48.552;9.370;2023-11-21T13:42:56;9.90;99.90
4602;DHT22;2313;48.552;9.370;2023-11-21T13:45:25;10.00;99.90
4602;DHT22;2313;48.552;9.370;2023-11-21T13:47:53;9.80;99.90
4602;DHT22;2313;48.552;9.370;2023-11-21T13:50:30;10.00;99.90
4602;DHT22;2313;48.552;9.370;2023-11-21T13:53:01;9.90;99.90
4602;DHT22;2313;48.552;9.370;2023-11-21T13:55:42;10.10;99.90
4602;DHT22;2313;48.552;9.370;2023-11-21T13:58:07;10.00;99.90
4602;DHT22;2313;48.552;9.370;2023-11-21T14:00:37;9.90;99.90
4602;DHT22;2313;48.552;9.370;2023-11-21T14:03:13;9.70;99.90
4602;DHT22;2313;48.552;9.370;2023-11-21T14:05:47;9.90;99.90
4602;DHT22;2313;48.552;9.370;2023-11-21T14:08:20;9.70;99.90
4602;DHT22;2313;48.552;9.370;2023-11-21T14:10:50;9.90;99.90
4602;DHT22;2313;48.552;9.370;2023-11-21T14:13:26;9.90;99.90
4602;DHT22;2313;48.552;9.370;2023-11-21T14:15:52;10.00;99.90
4602;DHT22;2313;48.552;9.370;2023-11-21T14:18:26;10.00;99.90
4602;DHT22;2313;48.552;9.370;2023-11-21T14:21:16;9.90;99.90
4602;DHT22;2313;48.552;9.370;2023-11-21T14:23:42;9.80;99.90
4602;DHT22;2313;48.552;9.370;2023-11-21T14:26:08;9.80;99.90
4602;DHT22;2313;48.552;9.370;2023-11-21T14:28:34;9.80;99.90
4602;DHT22;2313;48.552;9.370;2023-11-21T14:31:01;9.70;99.90
4602;DHT22;2313;48.552;9.370;2023-11-21T14:33:28;9.70;99.90
4602;DHT22;2313;48.552;9.370;2023-11-21T14:35:54;9.60;99.90
4602;DHT22;2313;48.552;9.370;2023-11-21T14:38:20;9.80;99.90
4602;DHT22;2313;48.552;9.370;2023-11-21T14:40:45;9.50;99.90
4602;DHT22;2313;48.552;9.370;2023-11-21T14:43:12;9.50;99.90
4602;DHT22;2313;48.552;9.370;2023-11-21T14:45:38;9.50;99.90
4602;DHT22;2313;48.552;9.370;2023-11-21T14:48:04;9.50;99.90
4602;DHT22;2313;48.552;9.370;2023-11-21T14:50:30;9.40;99.90
4602;DHT22;2313;48.552;9.370;2023-11-21T14:53:04;9.40;99.90
4602;DHT22;2313;48.552;9.370;2023-11-21T14:55:32;9.50;99.90
4602;DHT22;2313;48.552;9.370;2023-11-21T14:58:06;9.30;99.90
4602;DHT22;2313;48.552;9.370;2023-11-21T15:00:36;9.30;99.90
4602;DHT22;2313;48.552;9.370;2023-11-21T15:03:02;9.40;99.90
4602;DHT22;2313;48.552;9.370;2023-11-21T15:05:28;9.10;99.90
4602;DHT22;2313;48.552;9.370;2023-11-21T15:07:54;9.20;99.90
4602;DHT22;2313;48.552;9.370;2023-11-21T15:10:36;9.30;99.90
4602;DHT22;2313;48.552;9.370;2023-11-21T15:13:12;9.20;99.90
4602;DHT22;2313;48.552;9.370;2023-11-21T15:15:39;9.20;99.90
4602;DHT22;2313;48.552;9.370;2023-11-21T15:18:05;9.20;99.90
4602;DHT22;2313;48.552;9.370;2023-11-21T15:20:32;9.10;99.90
4602;DHT22;2313;48.552;9.370;2023-11-21T15:22:57;9.20;99.90
4602;DHT22;2313;48.552;9.370;2023-11-21T15:25:23;9.10;99.90
4602;DHT22;2313;48.552;9.370;2023-11-21T15:27:49;8.90;99.90
4602;DHT22;2313;48.552;9.370;2023-11-21T15:30:16;9.00;99.90
4602;DHT22;2313;48.552;9.370;2023-11-21T15:32:45;8.80;99.90
4602;DHT22;2313;48.552;9.370;2023-11-21T15:35:12;8.70;99.90
4602;DHT22;2313;48.552;9.370;2023-11-21T15:37:40;8.90;99.90
4602;DHT22;2313;48.552;9.370;2023-11-21T15:40:06;8.70;99.90
4602;DHT22;2313;48.552;9.370;2023-11-21T15:42:34;8.70;99.90
4602;DHT22;2313;48.552;9.370;2023-11-21T15:45:01;8.50;99.90
4602;DHT22;2313;48.552;9.370;2023-11-21T15:47:26;8.60;99.90
4602;DHT22;2313;48.552;9.370;2023-11-21T15:49:52;8.50;99.90
4602;DHT22;2313;48.552;9.370;2023-11-21T15:52:18;8.50;99.90
4602;DHT22;2313;48.552;9.370;2023-11-21T15:54:44;8.80;99.90
4602;DHT22;2313;48.552;9.370;2023-11-21T15:57:12;8.50;99.90
4602;DHT22;2313;48.552;9.370;2023-11-21T15:59:40;8.70;99.90
4602;DHT22;2313;48.552;9.370;2023-11-21T16:02:07;8.60;99.90
4602;DHT22;2313;48.552;9.370;2023-11-21T16:04:35;8.60;99.90
4602;DHT22;2313;48.552;9.370;2023-11-21T16:07:03;8.60;99.90
4602;DHT22;2313;48.552;9.370;2023-11-21T16:09:31;8.60;99.90
4602;DHT22;2313;48.552;9.370;2023-11-21T16:12:04;8.50;99.90
4602;DHT22;2313;48.552;9.370;2023-11-21T16:14:35;8.50;99.90
4602;DHT22;2313;48.552;9.370;2023-11-21T16:17:03;8.50;99.90
4602;DHT22;2313;48.552;9.370;2023-11-21T16:19:29;8.70;99.90
4602;DHT22;2313;48.552;9.370;2023-11-21T16:21:55;8.50;99.90
4602;DHT22;2313;48.552;9.370;2023-11-21T16:24:21;8.50;99.90
4602;DHT22;2313;48.552;9.370;2023-11-21T16:26:47;8.60;99.90
4602;DHT22;2313;48.552;9.370;2023-11-21T16:29:13;8.40;99.90
4602;DHT22;2313;48.552;9.370;2023-11-21T16:31:40;8.50;99.90